Celebrity Century — 9HJI9 — position and weather

sailwx.info

Track history (hours):
 
Tides and Currents Weather Stations Pressure Air Temp Water Temp Dewpoint Dewpoint Depression Visibility Wind Speed Wind Dir Waves Ship Positions

Celebrity Century

Last reported at 2015-Aug-04 17:33 UTC. Time now 2015-Aug-05 02:26 UTC.
Position N 31°19' E 123°41'.

Length 252 m; draft 8.1 m.

Type: Ship. MMSI: 249054000.

Date/timePositionNaut miles runAvg speedWind from/ knotsBaromVisibWave heightAir tempDewpointWater temp
2015-Aug-04 17:33N 31°19' E 123°41'1211.9
2015-Aug-04 16:34N 31°17' E 123°27'1212.1
2015-Aug-04 15:34N 31°13' E 123°14'1312.6
2015-Aug-04 14:34N 31°11' E 122°60'1212.2
2015-Aug-04 13:34N 31°05' E 122°47'1211.8
2015-Aug-04 12:34N 31°06' E 122°33'1110.9
2015-Aug-04 11:34N 31°06' E 122°20'1414.1
2015-Aug-04 10:34N 31°13' E 122°06'1414.1
2015-Aug-04 09:34N 31°17' E 121°50'1212.2
2015-Aug-04 08:34N 31°22' E 121°37'7 6.9
2015-Aug-04 07:34N 31°25' E 121°30'0 0.0
2015-Aug-04 06:34N 31°25' E 121°30'0 0.0
2015-Aug-04 05:34N 31°25' E 121°30'0 0.0
2015-Aug-04 04:34N 31°25' E 121°30'0 0.0
2015-Aug-04 03:34N 31°25' E 121°30'0 0.0
2015-Aug-04 02:34N 31°25' E 121°30'0 0.0
2015-Aug-04 01:34N 31°25' E 121°30'0 0.0
2015-Aug-04 00:34N 31°25' E 121°30'0 0.0
2015-Aug-03 23:34N 31°25' E 121°30'0 0.0
2015-Aug-03 22:34N 31°25' E 121°30'1 0.5
2015-Aug-03 21:34N 31°25' E 121°31'9 9.2
2015-Aug-03 20:34N 31°21' E 121°40'1313.2
2015-Aug-03 19:34N 31°16' E 121°55'1312.9
2015-Aug-03 18:34N 31°12' E 122°09'1212.0
2015-Aug-03 17:33N 31°06' E 122°22'1313.3
2015-Aug-03 16:34N 31°07' E 122°37'1413.7
2015-Aug-03 15:34N 31°12' E 122°52'1211.9
2015-Aug-03 14:34N 31°18' E 123°04'1312.8
2015-Aug-03 13:34N 31°21' E 123°18'1212.3
2015-Aug-03 12:34N 31°26' E 123°32'1313.2
2015-Aug-03 11:33N 31°33' E 123°45'1313.2
2015-Aug-03 10:33N 31°38' E 123°59'1812.7
2015-Aug-03 09:10N 31°45' E 124°18'2112.9
2015-Aug-03 07:31N 31°53' E 124°42'17713.3
2015-Aug-02 18:15N 33°03' E 127°54'1113.3
2015-Aug-02 17:28N 33°07' E 128°05'1313.5
2015-Aug-02 16:30N 33°14' E 128°18'7013.5
2015-Aug-02 11:18N 33°36' E 129°38'1013.7
2015-Aug-02 10:33N 33°40' E 129°49'1514.4
2015-Aug-02 09:33N 33°45' E 130°06'1313.2
2015-Aug-02 08:33N 33°38' E 130°20'4 3.9
2015-Aug-02 07:33N 33°37' E 130°24'0 0.0
2015-Aug-02 06:32N 33°37' E 130°24'0 0.0
2015-Aug-02 05:32N 33°37' E 130°24'0 0.0
2015-Aug-02 04:33N 33°37' E 130°24'0 0.0
2015-Aug-02 03:33N 33°37' E 130°24'0 0.0
2015-Aug-02 02:32N 33°37' E 130°24'0 0.0
2015-Aug-02 01:32N 33°37' E 130°24'0 0.0
2015-Aug-02 00:32N 33°37' E 130°24'0 0.0
2015-Aug-01 23:32N 33°37' E 130°24'0 0.0
2015-Aug-01 22:33N 33°37' E 130°24'2 1.6
2015-Aug-01 21:32N 33°37' E 130°22'1312.7
2015-Aug-01 20:33N 33°44' E 130°09'1716.5
2015-Aug-01 19:33N 33°39' E 129°50'5117.0
2015-Aug-01 16:32N 33°35' E 128°49'2319.2
2015-Aug-01 15:20N 33°36' E 128°21'154 9.2
2015-Jul-31 22:34N 32°58' E 125°23'2316.4
2015-Jul-31 21:07N 32°43' E 125°01'1416.7
2015-Jul-31 20:16N 32°34' E 124°48'1216.9
2015-Jul-31 19:34N 32°27' E 124°36'1817.9
2015-Jul-31 18:33N 32°16' E 124°20'2019.9
2015-Jul-31 17:33N 32°03' E 124°01'2020.1
2015-Jul-31 16:32N 31°50' E 123°43'1818.4
2015-Jul-31 15:34N 31°38' E 123°27'1818.3
2015-Jul-31 14:34N 31°28' E 123°09'1818.4
2015-Jul-31 13:33N 31°17' E 122°52'1817.9
2015-Jul-31 12:33N 31°06' E 122°35'1110.7
2015-Jul-31 11:34N 31°05' E 122°23'1010.2
2015-Jul-31 10:34N 31°10' E 122°12'1514.6
2015-Jul-31 09:34N 31°15' E 121°56'1414.3
2015-Jul-31 08:34N 31°20' E 121°40'10 9.6
2015-Jul-31 07:33N 31°25' E 121°30'0 0.0
2015-Jul-31 06:34N 31°25' E 121°30'0 0.0
2015-Jul-31 05:34N 31°25' E 121°30'0 0.0
2015-Jul-31 04:34N 31°25' E 121°30'0 0.0
2015-Jul-31 03:34N 31°25' E 121°30'0 0.0
2015-Jul-31 02:34N 31°25' E 121°30'0 0.0
2015-Jul-31 01:34N 31°25' E 121°30'0 0.0
2015-Jul-31 00:33N 31°25' E 121°30'0 0.0
2015-Jul-30 23:34N 31°25' E 121°30'0 0.0
2015-Jul-30 22:34N 31°25' E 121°30'0 0.3
2015-Jul-30 21:34N 31°25' E 121°31'10 9.8
2015-Jul-30 20:34N 31°20' E 121°41'1313.3
2015-Jul-30 19:34N 31°16' E 121°55'1313.2
2015-Jul-30 18:34N 31°11' E 122°10'1313.0
2015-Jul-30 17:34N 31°06' E 122°24'10 9.5
2015-Jul-30 16:33N 31°07' E 122°35'1010.1
2015-Jul-30 15:33N 31°08' E 122°47'1010.1
2015-Jul-30 14:33N 31°11' E 122°58'1010.5
2015-Jul-30 13:34N 31°14' E 123°10'1212.2
2015-Jul-30 12:34N 31°18' E 123°23'1413.6
2015-Jul-30 11:33N 31°19' E 123°39'1613.9
2015-Jul-30 10:24N 31°22' E 123°58'1214.0
2015-Jul-30 09:34N 31°25' E 124°11'1513.6
2015-Jul-30 08:28N 31°28' E 124°28'2513.1
2015-Jul-30 06:33N 31°34' E 124°57'1212.4
2015-Jul-30 05:33N 31°36' E 125°11'220 6.5
2015-Jul-28 19:25N 32°32' E 129°23'23612.5
2015-Jul-28 00:33N 31°33' E 124°53'2813.4
2015-Jul-27 22:28N 31°27' E 124°21'1212.9
2015-Jul-27 21:33N 31°24' E 124°07'1414.0
2015-Jul-27 20:34N 31°21' E 123°51'1414.0
2015-Jul-27 19:34N 31°18' E 123°35'1414.1
2015-Jul-27 18:34N 31°14' E 123°19'1514.5
2015-Jul-27 17:33N 31°11' E 123°03'1514.8
2015-Jul-27 16:34N 31°07' E 122°46'1414.0
2015-Jul-27 15:34N 31°06' E 122°30'1413.7
2015-Jul-27 14:34N 31°08' E 122°14'1413.6
2015-Jul-27 13:34N 31°15' E 122°00'1313.5
2015-Jul-27 12:33N 31°18' E 121°45'6 6.3
2015-Jul-27 11:34N 31°21' E 121°39'8 7.7
2015-Jul-27 10:34N 31°25' E 121°30'0 0.0
2015-Jul-27 09:34N 31°25' E 121°30'0 0.0
2015-Jul-27 08:33N 31°25' E 121°30'0 0.0
2015-Jul-27 07:34N 31°25' E 121°30'0 0.0
2015-Jul-27 06:34N 31°25' E 121°30'0 0.0
2015-Jul-27 05:34N 31°25' E 121°30'0 0.0
2015-Jul-27 04:34N 31°25' E 121°30'0 0.0
2015-Jul-27 03:34N 31°25' E 121°30'0 0.0
2015-Jul-27 02:34N 31°25' E 121°30'0 0.0
2015-Jul-27 01:34N 31°25' E 121°30'0 0.0
2015-Jul-27 00:34N 31°25' E 121°30'0 0.0
2015-Jul-26 23:34N 31°25' E 121°30'0 0.0
2015-Jul-26 22:34N 31°25' E 121°30'3 3.3
2015-Jul-26 21:34N 31°24' E 121°34'10 9.6
2015-Jul-26 20:34N 31°19' E 121°44'1212.2
2015-Jul-26 19:34N 31°15' E 121°58'1111.3
2015-Jul-26 18:34N 31°11' E 122°10'1312.8
2015-Jul-26 17:34N 31°06' E 122°24'1212.4
2015-Jul-26 16:34N 31°07' E 122°38'1312.6
2015-Jul-26 15:33N 31°10' E 122°53'1313.0
2015-Jul-26 14:33N 31°16' E 123°06'1413.6
2015-Jul-26 13:33N 31°23' E 123°20'1313.0
2015-Jul-26 12:34N 31°29' E 123°33'1313.0
2015-Jul-26 11:33N 31°32' E 123°48'  
Track history (hours):
 
Tides and Currents Weather Stations Pressure Air Temp Water Temp Dewpoint Dewpoint Depression Visibility Wind Speed Wind Dir Waves Ship Positions

Celebrity Century

Last reported at 2015-Aug-04 17:33 UTC. Time now 2015-Aug-05 02:26 UTC.
Position N 31°19' E 123°41'.

Length 252 m; draft 8.1 m.

Type: Ship. MMSI: 249054000.

Date/timePositionNaut miles runAvg speedWind from/ knotsBaromVisibWave heightAir tempDewpointWater temp
2015-Aug-04 17:33N 31°19' E 123°41'1211.9
2015-Aug-04 16:34N 31°17' E 123°27'1212.1
2015-Aug-04 15:34N 31°13' E 123°14'1312.6
2015-Aug-04 14:34N 31°11' E 122°60'1212.2
2015-Aug-04 13:34N 31°05' E 122°47'1211.8
2015-Aug-04 12:34N 31°06' E 122°33'1110.9
2015-Aug-04 11:34N 31°06' E 122°20'1414.1
2015-Aug-04 10:34N 31°13' E 122°06'1414.1
2015-Aug-04 09:34N 31°17' E 121°50'1212.2
2015-Aug-04 08:34N 31°22' E 121°37'7 6.9
2015-Aug-04 07:34N 31°25' E 121°30'0 0.0
2015-Aug-04 06:34N 31°25' E 121°30'0 0.0
2015-Aug-04 05:34N 31°25' E 121°30'0 0.0
2015-Aug-04 04:34N 31°25' E 121°30'0 0.0
2015-Aug-04 03:34N 31°25' E 121°30'0 0.0
2015-Aug-04 02:34N 31°25' E 121°30'0 0.0
2015-Aug-04 01:34N 31°25' E 121°30'0 0.0
2015-Aug-04 00:34N 31°25' E 121°30'0 0.0
2015-Aug-03 23:34N 31°25' E 121°30'0 0.0
2015-Aug-03 22:34N 31°25' E 121°30'1 0.5
2015-Aug-03 21:34N 31°25' E 121°31'9 9.2
2015-Aug-03 20:34N 31°21' E 121°40'1313.2
2015-Aug-03 19:34N 31°16' E 121°55'1312.9
2015-Aug-03 18:34N 31°12' E 122°09'1212.0
2015-Aug-03 17:33N 31°06' E 122°22'1313.3
2015-Aug-03 16:34N 31°07' E 122°37'1413.7
2015-Aug-03 15:34N 31°12' E 122°52'1211.9
2015-Aug-03 14:34N 31°18' E 123°04'1312.8
2015-Aug-03 13:34N 31°21' E 123°18'1212.3
2015-Aug-03 12:34N 31°26' E 123°32'1313.2
2015-Aug-03 11:33N 31°33' E 123°45'1313.2
2015-Aug-03 10:33N 31°38' E 123°59'1812.7
2015-Aug-03 09:10N 31°45' E 124°18'2112.9
2015-Aug-03 07:31N 31°53' E 124°42'17713.3
2015-Aug-02 18:15N 33°03' E 127°54'1113.3
2015-Aug-02 17:28N 33°07' E 128°05'1313.5
2015-Aug-02 16:30N 33°14' E 128°18'7013.5
2015-Aug-02 11:18N 33°36' E 129°38'1013.7
2015-Aug-02 10:33N 33°40' E 129°49'1514.4
2015-Aug-02 09:33N 33°45' E 130°06'1313.2
2015-Aug-02 08:33N 33°38' E 130°20'4 3.9
2015-Aug-02 07:33N 33°37' E 130°24'0 0.0
2015-Aug-02 06:32N 33°37' E 130°24'0 0.0
2015-Aug-02 05:32N 33°37' E 130°24'0 0.0
2015-Aug-02 04:33N 33°37' E 130°24'0 0.0
2015-Aug-02 03:33N 33°37' E 130°24'0 0.0
2015-Aug-02 02:32N 33°37' E 130°24'0 0.0
2015-Aug-02 01:32N 33°37' E 130°24'0 0.0
2015-Aug-02 00:32N 33°37' E 130°24'0 0.0
2015-Aug-01 23:32N 33°37' E 130°24'0 0.0
2015-Aug-01 22:33N 33°37' E 130°24'2 1.6
2015-Aug-01 21:32N 33°37' E 130°22'1312.7
2015-Aug-01 20:33N 33°44' E 130°09'1716.5
2015-Aug-01 19:33N 33°39' E 129°50'5117.0
2015-Aug-01 16:32N 33°35' E 128°49'2319.2
2015-Aug-01 15:20N 33°36' E 128°21'154 9.2
2015-Jul-31 22:34N 32°58' E 125°23'2316.4
2015-Jul-31 21:07N 32°43' E 125°01'1416.7
2015-Jul-31 20:16N 32°34' E 124°48'1216.9
2015-Jul-31 19:34N 32°27' E 124°36'1817.9
2015-Jul-31 18:33N 32°16' E 124°20'2019.9
2015-Jul-31 17:33N 32°03' E 124°01'2020.1
2015-Jul-31 16:32N 31°50' E 123°43'1818.4
2015-Jul-31 15:34N 31°38' E 123°27'1818.3
2015-Jul-31 14:34N 31°28' E 123°09'1818.4
2015-Jul-31 13:33N 31°17' E 122°52'1817.9
2015-Jul-31 12:33N 31°06' E 122°35'1110.7
2015-Jul-31 11:34N 31°05' E 122°23'1010.2
2015-Jul-31 10:34N 31°10' E 122°12'1514.6
2015-Jul-31 09:34N 31°15' E 121°56'1414.3
2015-Jul-31 08:34N 31°20' E 121°40'10 9.6
2015-Jul-31 07:33N 31°25' E 121°30'0 0.0
2015-Jul-31 06:34N 31°25' E 121°30'0 0.0
2015-Jul-31 05:34N 31°25' E 121°30'0 0.0
2015-Jul-31 04:34N 31°25' E 121°30'0 0.0
2015-Jul-31 03:34N 31°25' E 121°30'0 0.0
2015-Jul-31 02:34N 31°25' E 121°30'0 0.0
2015-Jul-31 01:34N 31°25' E 121°30'0 0.0
2015-Jul-31 00:33N 31°25' E 121°30'0 0.0
2015-Jul-30 23:34N 31°25' E 121°30'0 0.0
2015-Jul-30 22:34N 31°25' E 121°30'0 0.3
2015-Jul-30 21:34N 31°25' E 121°31'10 9.8
2015-Jul-30 20:34N 31°20' E 121°41'1313.3
2015-Jul-30 19:34N 31°16' E 121°55'1313.2
2015-Jul-30 18:34N 31°11' E 122°10'1313.0
2015-Jul-30 17:34N 31°06' E 122°24'10 9.5
2015-Jul-30 16:33N 31°07' E 122°35'1010.1
2015-Jul-30 15:33N 31°08' E 122°47'1010.1
2015-Jul-30 14:33N 31°11' E 122°58'1010.5
2015-Jul-30 13:34N 31°14' E 123°10'1212.2
2015-Jul-30 12:34N 31°18' E 123°23'1413.6
2015-Jul-30 11:33N 31°19' E 123°39'1613.9
2015-Jul-30 10:24N 31°22' E 123°58'1214.0
2015-Jul-30 09:34N 31°25' E 124°11'1513.6
2015-Jul-30 08:28N 31°28' E 124°28'2513.1
2015-Jul-30 06:33N 31°34' E 124°57'1212.4
2015-Jul-30 05:33N 31°36' E 125°11'220 6.5
2015-Jul-28 19:25N 32°32' E 129°23'23612.5
2015-Jul-28 00:33N 31°33' E 124°53'2813.4
2015-Jul-27 22:28N 31°27' E 124°21'1212.9
2015-Jul-27 21:33N 31°24' E 124°07'1414.0
2015-Jul-27 20:34N 31°21' E 123°51'1414.0
2015-Jul-27 19:34N 31°18' E 123°35'1414.1
2015-Jul-27 18:34N 31°14' E 123°19'1514.5
2015-Jul-27 17:33N 31°11' E 123°03'1514.8
2015-Jul-27 16:34N 31°07' E 122°46'1414.0
2015-Jul-27 15:34N 31°06' E 122°30'1413.7
2015-Jul-27 14:34N 31°08' E 122°14'1413.6
2015-Jul-27 13:34N 31°15' E 122°00'1313.5
2015-Jul-27 12:33N 31°18' E 121°45'6 6.3
2015-Jul-27 11:34N 31°21' E 121°39'8 7.7
2015-Jul-27 10:34N 31°25' E 121°30'0 0.0
2015-Jul-27 09:34N 31°25' E 121°30'0 0.0
2015-Jul-27 08:33N 31°25' E 121°30'0 0.0
2015-Jul-27 07:34N 31°25' E 121°30'0 0.0
2015-Jul-27 06:34N 31°25' E 121°30'0 0.0
2015-Jul-27 05:34N 31°25' E 121°30'0 0.0
2015-Jul-27 04:34N 31°25' E 121°30'0 0.0
2015-Jul-27 03:34N 31°25' E 121°30'0 0.0
2015-Jul-27 02:34N 31°25' E 121°30'0 0.0
2015-Jul-27 01:34N 31°25' E 121°30'0 0.0
2015-Jul-27 00:34N 31°25' E 121°30'0 0.0
2015-Jul-26 23:34N 31°25' E 121°30'0 0.0
2015-Jul-26 22:34N 31°25' E 121°30'3 3.3
2015-Jul-26 21:34N 31°24' E 121°34'10 9.6
2015-Jul-26 20:34N 31°19' E 121°44'1212.2
2015-Jul-26 19:34N 31°15' E 121°58'1111.3
2015-Jul-26 18:34N 31°11' E 122°10'1312.8
2015-Jul-26 17:34N 31°06' E 122°24'1212.4
2015-Jul-26 16:34N 31°07' E 122°38'1312.6
2015-Jul-26 15:33N 31°10' E 122°53'1313.0
2015-Jul-26 14:33N 31°16' E 123°06'1413.6
2015-Jul-26 13:33N 31°23' E 123°20'1313.0
2015-Jul-26 12:34N 31°29' E 123°33'1313.0
2015-Jul-26 11:33N 31°32' E 123°48'  

Dump ship's entire track history